sensor_id;sensor_type;location;lat;lon;timestamp;P1;durP1;ratioP1;P2;durP2;ratioP2
6529;SDS011;3298;42.688;23.366;2022-12-04T00:01:09;9.57;;;7.00;;
6529;SDS011;3298;42.688;23.366;2022-12-04T00:03:37;6.90;;;6.30;;
6529;SDS011;3298;42.688;23.366;2022-12-04T00:06:05;7.00;;;6.33;;
6529;SDS011;3298;42.688;23.366;2022-12-04T00:08:33;7.63;;;6.93;;
6529;SDS011;3298;42.688;23.366;2022-12-04T00:11:00;8.93;;;6.83;;
6529;SDS011;3298;42.688;23.366;2022-12-04T00:13:28;6.73;;;6.03;;
6529;SDS011;3298;42.688;23.366;2022-12-04T00:15:55;7.27;;;6.53;;
6529;SDS011;3298;42.688;23.366;2022-12-04T00:18:23;9.67;;;6.40;;
6529;SDS011;3298;42.688;23.366;2022-12-04T00:20:50;8.07;;;6.40;;
6529;SDS011;3298;42.688;23.366;2022-12-04T00:23:18;6.77;;;5.67;;
6529;SDS011;3298;42.688;23.366;2022-12-04T00:25:45;7.40;;;6.70;;
6529;SDS011;3298;42.688;23.366;2022-12-04T00:28:13;6.63;;;6.10;;
6529;SDS011;3298;42.688;23.366;2022-12-04T00:30:41;6.63;;;5.87;;
6529;SDS011;3298;42.688;23.366;2022-12-04T00:33:08;5.73;;;5.23;;
6529;SDS011;3298;42.688;23.366;2022-12-04T00:35:34;6.27;;;5.57;;
6529;SDS011;3298;42.688;23.366;2022-12-04T00:38:02;6.27;;;5.73;;
6529;SDS011;3298;42.688;23.366;2022-12-04T00:40:30;6.13;;;5.63;;
6529;SDS011;3298;42.688;23.366;2022-12-04T00:42:57;6.53;;;6.03;;
6529;SDS011;3298;42.688;23.366;2022-12-04T00:45:24;6.00;;;5.47;;
6529;SDS011;3298;42.688;23.366;2022-12-04T00:47:51;5.70;;;5.20;;
6529;SDS011;3298;42.688;23.366;2022-12-04T00:50:17;6.93;;;6.23;;
6529;SDS011;3298;42.688;23.366;2022-12-04T00:52:44;7.50;;;6.00;;
6529;SDS011;3298;42.688;23.366;2022-12-04T00:55:11;5.70;;;5.20;;
6529;SDS011;3298;42.688;23.366;2022-12-04T00:57:39;5.73;;;5.17;;
6529;SDS011;3298;42.688;23.366;2022-12-04T01:00:06;5.30;;;4.90;;
6529;SDS011;3298;42.688;23.366;2022-12-04T01:02:34;5.43;;;5.03;;
6529;SDS011;3298;42.688;23.366;2022-12-04T01:05:00;6.13;;;4.30;;
6529;SDS011;3298;42.688;23.366;2022-12-04T01:07:27;5.73;;;5.23;;
6529;SDS011;3298;42.688;23.366;2022-12-04T01:09:54;5.40;;;5.00;;
6529;SDS011;3298;42.688;23.366;2022-12-04T01:12:21;6.13;;;5.53;;
6529;SDS011;3298;42.688;23.366;2022-12-04T01:14:50;6.00;;;4.27;;
6529;SDS011;3298;42.688;23.366;2022-12-04T01:17:16;5.13;;;4.73;;
6529;SDS011;3298;42.688;23.366;2022-12-04T01:19:43;4.10;;;3.80;;
6529;SDS011;3298;42.688;23.366;2022-12-04T01:22:10;4.97;;;4.57;;
6529;SDS011;3298;42.688;23.366;2022-12-04T01:24:37;4.67;;;4.27;;
6529;SDS011;3298;42.688;23.366;2022-12-04T01:27:04;5.37;;;4.97;;
6529;SDS011;3298;42.688;23.366;2022-12-04T01:29:30;5.77;;;5.27;;
6529;SDS011;3298;42.688;23.366;2022-12-04T01:31:59;5.37;;;4.93;;
6529;SDS011;3298;42.688;23.366;2022-12-04T01:34:25;4.80;;;4.47;;
6529;SDS011;3298;42.688;23.366;2022-12-04T01:36:52;5.03;;;4.53;;
6529;SDS011;3298;42.688;23.366;2022-12-04T01:39:19;4.97;;;4.57;;
6529;SDS011;3298;42.688;23.366;2022-12-04T01:41:46;4.97;;;4.53;;
6529;SDS011;3298;42.688;23.366;2022-12-04T01:44:13;4.53;;;4.13;;
6529;SDS011;3298;42.688;23.366;2022-12-04T01:46:43;4.57;;;4.17;;
6529;SDS011;3298;42.688;23.366;2022-12-04T01:49:13;4.40;;;4.20;;
6529;SDS011;3298;42.688;23.366;2022-12-04T01:51:43;4.07;;;3.70;;
6529;SDS011;3298;42.688;23.366;2022-12-04T01:54:14;4.17;;;3.97;;
6529;SDS011;3298;42.688;23.366;2022-12-04T01:56:44;4.43;;;4.13;;
6529;SDS011;3298;42.688;23.366;2022-12-04T01:59:14;4.70;;;4.30;;
6529;SDS011;3298;42.688;23.366;2022-12-04T02:01:48;4.10;;;3.80;;
6529;SDS011;3298;42.688;23.366;2022-12-04T02:04:23;3.77;;;3.57;;
6529;SDS011;3298;42.688;23.366;2022-12-04T02:06:50;3.73;;;3.47;;
6529;SDS011;3298;42.688;23.366;2022-12-04T02:09:17;4.27;;;3.87;;
6529;SDS011;3298;42.688;23.366;2022-12-04T02:11:46;4.47;;;4.07;;
6529;SDS011;3298;42.688;23.366;2022-12-04T02:14:20;3.77;;;3.50;;
6529;SDS011;3298;42.688;23.366;2022-12-04T02:16:58;4.47;;;4.17;;
6529;SDS011;3298;42.688;23.366;2022-12-04T02:19:37;4.50;;;4.10;;
6529;SDS011;3298;42.688;23.366;2022-12-04T02:22:26;4.70;;;4.37;;
6529;SDS011;3298;42.688;23.366;2022-12-04T02:25:03;3.93;;;3.63;;
6529;SDS011;3298;42.688;23.366;2022-12-04T02:27:57;4.43;;;4.13;;
6529;SDS011;3298;42.688;23.366;2022-12-04T02:30:28;4.00;;;3.70;;
6529;SDS011;3298;42.688;23.366;2022-12-04T02:32:59;3.80;;;3.57;;
6529;SDS011;3298;42.688;23.366;2022-12-04T02:35:32;4.47;;;4.07;;
6529;SDS011;3298;42.688;23.366;2022-12-04T02:38:03;10.27;;;8.77;;
6529;SDS011;3298;42.688;23.366;2022-12-04T02:40:37;10.60;;;9.60;;
6529;SDS011;3298;42.688;23.366;2022-12-04T02:43:11;11.00;;;9.60;;
6529;SDS011;3298;42.688;23.366;2022-12-04T02:45:43;10.10;;;8.60;;
6529;SDS011;3298;42.688;23.366;2022-12-04T02:48:13;5.07;;;4.73;;
6529;SDS011;3298;42.688;23.366;2022-12-04T02:50:44;4.57;;;4.23;;
6529;SDS011;3298;42.688;23.366;2022-12-04T02:53:15;4.70;;;4.30;;
6529;SDS011;3298;42.688;23.366;2022-12-04T02:55:46;4.60;;;3.80;;
6529;SDS011;3298;42.688;23.366;2022-12-04T02:58:20;3.93;;;3.60;;
6529;SDS011;3298;42.688;23.366;2022-12-04T03:00:50;3.50;;;3.30;;
6529;SDS011;3298;42.688;23.366;2022-12-04T03:03:22;4.43;;;4.07;;
6529;SDS011;3298;42.688;23.366;2022-12-04T03:05:53;4.03;;;3.73;;
6529;SDS011;3298;42.688;23.366;2022-12-04T03:08:25;3.97;;;3.67;;
6529;SDS011;3298;42.688;23.366;2022-12-04T03:10:56;2.97;;;2.77;;
6529;SDS011;3298;42.688;23.366;2022-12-04T03:13:27;3.87;;;3.50;;
6529;SDS011;3298;42.688;23.366;2022-12-04T03:15:59;3.43;;;3.13;;
6529;SDS011;3298;42.688;23.366;2022-12-04T03:18:33;3.20;;;3.00;;
6529;SDS011;3298;42.688;23.366;2022-12-04T03:21:05;3.30;;;3.10;;
6529;SDS011;3298;42.688;23.366;2022-12-04T03:23:36;3.90;;;3.60;;
6529;SDS011;3298;42.688;23.366;2022-12-04T03:26:09;3.67;;;3.47;;
6529;SDS011;3298;42.688;23.366;2022-12-04T03:28:44;3.17;;;2.97;;
6529;SDS011;3298;42.688;23.366;2022-12-04T03:31:14;2.77;;;2.63;;
6529;SDS011;3298;42.688;23.366;2022-12-04T03:33:47;3.03;;;2.83;;
6529;SDS011;3298;42.688;23.366;2022-12-04T03:36:16;3.40;;;3.10;;
6529;SDS011;3298;42.688;23.366;2022-12-04T03:38:48;3.07;;;2.87;;
6529;SDS011;3298;42.688;23.366;2022-12-04T03:41:22;3.53;;;3.00;;
6529;SDS011;3298;42.688;23.366;2022-12-04T03:43:56;3.10;;;2.90;;
6529;SDS011;3298;42.688;23.366;2022-12-04T03:46:30;3.50;;;3.30;;
6529;SDS011;3298;42.688;23.366;2022-12-04T03:49:01;3.03;;;2.83;;
6529;SDS011;3298;42.688;23.366;2022-12-04T03:51:36;3.70;;;2.57;;
6529;SDS011;3298;42.688;23.366;2022-12-04T03:54:07;2.80;;;2.60;;
6529;SDS011;3298;42.688;23.366;2022-12-04T03:56:40;2.43;;;2.33;;
6529;SDS011;3298;42.688;23.366;2022-12-04T03:59:14;2.73;;;2.60;;
6529;SDS011;3298;42.688;23.366;2022-12-04T04:01:45;2.63;;;2.43;;
6529;SDS011;3298;42.688;23.366;2022-12-04T04:04:15;2.57;;;2.47;;
6529;SDS011;3298;42.688;23.366;2022-12-04T04:06:45;2.47;;;2.37;;
6529;SDS011;3298;42.688;23.366;2022-12-04T04:09:17;2.87;;;2.70;;
6529;SDS011;3298;42.688;23.366;2022-12-04T04:11:47;3.07;;;2.77;;
6529;SDS011;3298;42.688;23.366;2022-12-04T04:14:20;2.97;;;2.77;;
6529;SDS011;3298;42.688;23.366;2022-12-04T04:17:10;3.23;;;2.93;;
6529;SDS011;3298;42.688;23.366;2022-12-04T04:20:00;2.87;;;2.57;;
6529;SDS011;3298;42.688;23.366;2022-12-04T04:22:47;3.30;;;3.10;;
6529;SDS011;3298;42.688;23.366;2022-12-04T04:25:36;2.80;;;2.60;;
6529;SDS011;3298;42.688;23.366;2022-12-04T04:30:56;3.27;;;3.07;;
6529;SDS011;3298;42.688;23.366;2022-12-04T04:33:30;3.50;;;3.23;;
6529;SDS011;3298;42.688;23.366;2022-12-04T04:36:03;3.93;;;3.63;;
6529;SDS011;3298;42.688;23.366;2022-12-04T04:38:38;4.73;;;4.37;;
6529;SDS011;3298;42.688;23.366;2022-12-04T04:41:09;6.33;;;3.97;;
6529;SDS011;3298;42.688;23.366;2022-12-04T04:43:44;3.97;;;3.63;;
6529;SDS011;3298;42.688;23.366;2022-12-04T04:46:17;3.97;;;3.67;;
6529;SDS011;3298;42.688;23.366;2022-12-04T04:48:50;4.50;;;4.20;;
6529;SDS011;3298;42.688;23.366;2022-12-04T04:51:20;4.43;;;4.10;;
6529;SDS011;3298;42.688;23.366;2022-12-04T04:53:48;4.43;;;4.03;;
6529;SDS011;3298;42.688;23.366;2022-12-04T04:56:19;4.27;;;3.87;;
6529;SDS011;3298;42.688;23.366;2022-12-04T04:58:47;3.80;;;3.50;;
6529;SDS011;3298;42.688;23.366;2022-12-04T05:01:15;3.70;;;3.40;;
6529;SDS011;3298;42.688;23.366;2022-12-04T05:03:44;4.00;;;3.70;;
6529;SDS011;3298;42.688;23.366;2022-12-04T05:06:11;4.23;;;3.83;;
6529;SDS011;3298;42.688;23.366;2022-12-04T05:08:38;4.60;;;4.20;;
6529;SDS011;3298;42.688;23.366;2022-12-04T05:11:05;4.57;;;4.17;;
6529;SDS011;3298;42.688;23.366;2022-12-04T05:13:36;4.13;;;3.83;;
6529;SDS011;3298;42.688;23.366;2022-12-04T05:16:04;3.47;;;3.17;;
6529;SDS011;3298;42.688;23.366;2022-12-04T05:18:33;4.53;;;3.80;;
6529;SDS011;3298;42.688;23.366;2022-12-04T05:21:03;5.03;;;3.80;;
6529;SDS011;3298;42.688;23.366;2022-12-04T05:23:29;4.73;;;4.33;;
6529;SDS011;3298;42.688;23.366;2022-12-04T05:25:59;4.10;;;3.80;;
6529;SDS011;3298;42.688;23.366;2022-12-04T05:28:27;4.10;;;3.80;;
6529;SDS011;3298;42.688;23.366;2022-12-04T05:30:54;5.07;;;4.67;;
6529;SDS011;3298;42.688;23.366;2022-12-04T05:33:21;5.07;;;4.67;;
6529;SDS011;3298;42.688;23.366;2022-12-04T05:35:56;4.40;;;4.10;;
6529;SDS011;3298;42.688;23.366;2022-12-04T05:38:23;4.37;;;4.00;;
6529;SDS011;3298;42.688;23.366;2022-12-04T05:40:50;4.73;;;4.20;;
6529;SDS011;3298;42.688;23.366;2022-12-04T05:43:17;4.23;;;3.93;;
6529;SDS011;3298;42.688;23.366;2022-12-04T05:45:45;4.50;;;4.10;;
6529;SDS011;3298;42.688;23.366;2022-12-04T05:48:11;4.00;;;3.70;;
6529;SDS011;3298;42.688;23.366;2022-12-04T05:50:38;4.30;;;4.00;;
6529;SDS011;3298;42.688;23.366;2022-12-04T05:53:06;4.00;;;3.70;;
6529;SDS011;3298;42.688;23.366;2022-12-04T05:55:33;4.33;;;4.03;;
6529;SDS011;3298;42.688;23.366;2022-12-04T05:58:00;4.27;;;3.87;;
6529;SDS011;3298;42.688;23.366;2022-12-04T06:00:27;4.33;;;3.87;;
6529;SDS011;3298;42.688;23.366;2022-12-04T06:02:53;3.97;;;3.67;;
6529;SDS011;3298;42.688;23.366;2022-12-04T06:05:20;4.43;;;4.03;;
6529;SDS011;3298;42.688;23.366;2022-12-04T06:07:47;3.90;;;3.67;;
6529;SDS011;3298;42.688;23.366;2022-12-04T06:10:15;4.50;;;4.10;;
6529;SDS011;3298;42.688;23.366;2022-12-04T06:12:42;4.97;;;4.47;;
6529;SDS011;3298;42.688;23.366;2022-12-04T06:15:09;4.10;;;3.80;;
6529;SDS011;3298;42.688;23.366;2022-12-04T06:17:36;4.63;;;4.23;;
6529;SDS011;3298;42.688;23.366;2022-12-04T06:20:03;4.67;;;4.27;;
6529;SDS011;3298;42.688;23.366;2022-12-04T06:22:31;4.77;;;4.37;;
6529;SDS011;3298;42.688;23.366;2022-12-04T06:24:58;3.97;;;3.70;;
6529;SDS011;3298;42.688;23.366;2022-12-04T06:27:26;4.77;;;4.40;;
6529;SDS011;3298;42.688;23.366;2022-12-04T06:29:53;6.40;;;4.80;;
6529;SDS011;3298;42.688;23.366;2022-12-04T06:32:19;4.93;;;4.50;;
6529;SDS011;3298;42.688;23.366;2022-12-04T06:34:48;6.07;;;5.20;;
6529;SDS011;3298;42.688;23.366;2022-12-04T06:37:16;5.23;;;4.70;;
6529;SDS011;3298;42.688;23.366;2022-12-04T06:39:43;8.40;;;5.40;;
6529;SDS011;3298;42.688;23.366;2022-12-04T06:42:10;6.73;;;6.13;;
6529;SDS011;3298;42.688;23.366;2022-12-04T06:44:38;12.97;;;8.10;;
6529;SDS011;3298;42.688;23.366;2022-12-04T06:47:05;12.07;;;7.40;;
6529;SDS011;3298;42.688;23.366;2022-12-04T06:49:32;9.37;;;6.53;;
6529;SDS011;3298;42.688;23.366;2022-12-04T06:51:58;8.03;;;6.67;;
6529;SDS011;3298;42.688;23.366;2022-12-04T06:54:25;5.33;;;4.93;;
6529;SDS011;3298;42.688;23.366;2022-12-04T06:56:52;5.80;;;5.40;;
6529;SDS011;3298;42.688;23.366;2022-12-04T06:59:19;7.17;;;6.50;;
6529;SDS011;3298;42.688;23.366;2022-12-04T07:01:47;6.47;;;5.87;;
6529;SDS011;3298;42.688;23.366;2022-12-04T07:04:14;7.37;;;6.73;;
6529;SDS011;3298;42.688;23.366;2022-12-04T07:06:40;10.10;;;6.90;;
6529;SDS011;3298;42.688;23.366;2022-12-04T07:09:08;9.87;;;8.67;;
6529;SDS011;3298;42.688;23.366;2022-12-04T07:11:37;11.30;;;8.57;;
6529;SDS011;3298;42.688;23.366;2022-12-04T07:14:04;10.13;;;7.80;;
6529;SDS011;3298;42.688;23.366;2022-12-04T07:16:31;8.00;;;6.67;;
6529;SDS011;3298;42.688;23.366;2022-12-04T07:18:59;8.83;;;6.87;;
6529;SDS011;3298;42.688;23.366;2022-12-04T07:21:27;7.70;;;6.83;;
6529;SDS011;3298;42.688;23.366;2022-12-04T07:23:57;6.90;;;6.30;;
6529;SDS011;3298;42.688;23.366;2022-12-04T07:26:25;5.77;;;5.00;;
6529;SDS011;3298;42.688;23.366;2022-12-04T07:28:53;6.27;;;5.77;;
6529;SDS011;3298;42.688;23.366;2022-12-04T07:31:21;6.50;;;5.53;;
6529;SDS011;3298;42.688;23.366;2022-12-04T07:33:49;5.73;;;5.17;;
6529;SDS011;3298;42.688;23.366;2022-12-04T07:36:19;8.37;;;4.83;;
6529;SDS011;3298;42.688;23.366;2022-12-04T07:38:47;4.80;;;4.50;;
6529;SDS011;3298;42.688;23.366;2022-12-04T07:41:14;4.97;;;4.57;;
6529;SDS011;3298;42.688;23.366;2022-12-04T07:43:41;5.23;;;4.83;;
6529;SDS011;3298;42.688;23.366;2022-12-04T07:46:09;5.43;;;4.50;;
6529;SDS011;3298;42.688;23.366;2022-12-04T07:48:37;4.13;;;3.73;;
6529;SDS011;3298;42.688;23.366;2022-12-04T07:51:04;4.10;;;3.80;;
6529;SDS011;3298;42.688;23.366;2022-12-04T07:53:34;4.07;;;3.77;;
6529;SDS011;3298;42.688;23.366;2022-12-04T07:56:01;4.17;;;3.77;;
6529;SDS011;3298;42.688;23.366;2022-12-04T07:58:29;4.27;;;3.93;;
6529;SDS011;3298;42.688;23.366;2022-12-04T08:01:03;4.73;;;4.33;;
6529;SDS011;3298;42.688;23.366;2022-12-04T08:03:30;5.97;;;4.70;;
6529;SDS011;3298;42.688;23.366;2022-12-04T08:05:58;5.90;;;3.47;;
6529;SDS011;3298;42.688;23.366;2022-12-04T08:08:25;4.27;;;3.77;;
6529;SDS011;3298;42.688;23.366;2022-12-04T08:10:53;6.47;;;3.70;;
6529;SDS011;3298;42.688;23.366;2022-12-04T08:13:20;4.13;;;3.37;;
6529;SDS011;3298;42.688;23.366;2022-12-04T08:15:47;3.47;;;3.23;;
6529;SDS011;3298;42.688;23.366;2022-12-04T08:18:14;4.57;;;3.50;;
6529;SDS011;3298;42.688;23.366;2022-12-04T08:20:41;2.60;;;2.10;;
6529;SDS011;3298;42.688;23.366;2022-12-04T08:23:08;3.17;;;2.97;;
6529;SDS011;3298;42.688;23.366;2022-12-04T08:25:36;4.77;;;4.37;;
6529;SDS011;3298;42.688;23.366;2022-12-04T08:28:05;4.47;;;4.17;;
6529;SDS011;3298;42.688;23.366;2022-12-04T08:30:32;3.73;;;3.43;;
6529;SDS011;3298;42.688;23.366;2022-12-04T08:33:00;4.30;;;3.77;;
6529;SDS011;3298;42.688;23.366;2022-12-04T08:35:27;4.27;;;3.87;;
6529;SDS011;3298;42.688;23.366;2022-12-04T08:37:54;3.77;;;3.47;;
6529;SDS011;3298;42.688;23.366;2022-12-04T08:40:20;3.70;;;3.40;;
6529;SDS011;3298;42.688;23.366;2022-12-04T08:42:47;5.40;;;4.10;;
6529;SDS011;3298;42.688;23.366;2022-12-04T08:45:16;4.27;;;3.50;;
6529;SDS011;3298;42.688;23.366;2022-12-04T08:47:43;3.50;;;3.20;;
6529;SDS011;3298;42.688;23.366;2022-12-04T08:50:09;3.57;;;3.27;;
6529;SDS011;3298;42.688;23.366;2022-12-04T08:52:36;3.27;;;3.07;;
6529;SDS011;3298;42.688;23.366;2022-12-04T08:55:03;4.07;;;3.70;;
6529;SDS011;3298;42.688;23.366;2022-12-04T08:57:31;8.50;;;4.13;;
6529;SDS011;3298;42.688;23.366;2022-12-04T08:59:58;5.10;;;3.67;;
6529;SDS011;3298;42.688;23.366;2022-12-04T09:02:26;4.00;;;3.70;;
6529;SDS011;3298;42.688;23.366;2022-12-04T09:04:53;4.97;;;4.57;;
6529;SDS011;3298;42.688;23.366;2022-12-04T09:07:19;5.23;;;4.73;;
6529;SDS011;3298;42.688;23.366;2022-12-04T09:09:46;4.50;;;3.53;;
6529;SDS011;3298;42.688;23.366;2022-12-04T09:12:13;6.20;;;4.90;;
6529;SDS011;3298;42.688;23.366;2022-12-04T09:14:40;4.17;;;3.87;;
6529;SDS011;3298;42.688;23.366;2022-12-04T09:17:06;5.07;;;4.13;;
6529;SDS011;3298;42.688;23.366;2022-12-04T09:19:34;6.10;;;4.27;;
6529;SDS011;3298;42.688;23.366;2022-12-04T09:22:01;4.70;;;3.90;;
6529;SDS011;3298;42.688;23.366;2022-12-04T09:24:28;5.43;;;4.67;;
6529;SDS011;3298;42.688;23.366;2022-12-04T09:26:55;5.47;;;4.87;;
6529;SDS011;3298;42.688;23.366;2022-12-04T09:29:22;4.53;;;4.13;;
6529;SDS011;3298;42.688;23.366;2022-12-04T09:31:50;5.60;;;4.73;;
6529;SDS011;3298;42.688;23.366;2022-12-04T09:34:16;8.73;;;4.40;;
6529;SDS011;3298;42.688;23.366;2022-12-04T09:36:45;4.87;;;4.30;;
6529;SDS011;3298;42.688;23.366;2022-12-04T09:39:11;4.70;;;4.30;;
6529;SDS011;3298;42.688;23.366;2022-12-04T09:41:49;4.40;;;3.50;;
6529;SDS011;3298;42.688;23.366;2022-12-04T09:44:28;4.37;;;4.07;;
6529;SDS011;3298;42.688;23.366;2022-12-04T09:46:59;5.93;;;4.50;;
6529;SDS011;3298;42.688;23.366;2022-12-04T09:49:28;4.93;;;4.43;;
6529;SDS011;3298;42.688;23.366;2022-12-04T09:52:05;4.63;;;3.90;;
6529;SDS011;3298;42.688;23.366;2022-12-04T09:54:36;4.77;;;4.37;;
6529;SDS011;3298;42.688;23.366;2022-12-04T09:57:10;4.77;;;4.30;;
6529;SDS011;3298;42.688;23.366;2022-12-04T09:59:41;7.23;;;5.20;;
6529;SDS011;3298;42.688;23.366;2022-12-04T10:02:15;6.30;;;4.73;;
6529;SDS011;3298;42.688;23.366;2022-12-04T10:04:51;7.77;;;5.77;;
6529;SDS011;3298;42.688;23.366;2022-12-04T10:07:21;6.43;;;5.67;;
6529;SDS011;3298;42.688;23.366;2022-12-04T10:09:54;4.97;;;4.50;;
6529;SDS011;3298;42.688;23.366;2022-12-04T10:12:27;7.53;;;5.83;;
6529;SDS011;3298;42.688;23.366;2022-12-04T10:15:02;7.40;;;5.60;;
6529;SDS011;3298;42.688;23.366;2022-12-04T10:17:40;5.50;;;5.10;;
6529;SDS011;3298;42.688;23.366;2022-12-04T10:20:24;6.47;;;5.87;;
6529;SDS011;3298;42.688;23.366;2022-12-04T10:23:06;3.87;;;3.40;;
6529;SDS011;3298;42.688;23.366;2022-12-04T10:25:40;4.40;;;4.00;;
6529;SDS011;3298;42.688;23.366;2022-12-04T10:28:10;6.00;;;5.17;;
6529;SDS011;3298;42.688;23.366;2022-12-04T10:30:46;5.93;;;5.33;;
6529;SDS011;3298;42.688;23.366;2022-12-04T10:33:15;7.33;;;6.63;;
6529;SDS011;3298;42.688;23.366;2022-12-04T10:35:48;6.17;;;5.57;;
6529;SDS011;3298;42.688;23.366;2022-12-04T10:38:22;6.60;;;5.03;;
6529;SDS011;3298;42.688;23.366;2022-12-04T10:40:56;3.70;;;3.50;;
6529;SDS011;3298;42.688;23.366;2022-12-04T10:43:30;4.17;;;3.83;;
6529;SDS011;3298;42.688;23.366;2022-12-04T10:46:02;7.60;;;5.83;;
6529;SDS011;3298;42.688;23.366;2022-12-04T10:48:30;6.90;;;5.07;;
6529;SDS011;3298;42.688;23.366;2022-12-04T10:51:01;4.47;;;4.00;;
6529;SDS011;3298;42.688;23.366;2022-12-04T10:53:31;5.50;;;5.00;;
6529;SDS011;3298;42.688;23.366;2022-12-04T10:56:08;5.97;;;5.37;;
6529;SDS011;3298;42.688;23.366;2022-12-04T10:58:37;4.47;;;4.13;;
6529;SDS011;3298;42.688;23.366;2022-12-04T11:01:05;5.53;;;5.03;;
6529;SDS011;3298;42.688;23.366;2022-12-04T11:03:34;5.70;;;5.10;;
6529;SDS011;3298;42.688;23.366;2022-12-04T11:06:03;5.20;;;4.80;;
6529;SDS011;3298;42.688;23.366;2022-12-04T11:08:34;5.07;;;4.60;;
6529;SDS011;3298;42.688;23.366;2022-12-04T11:11:05;10.03;;;5.20;;
6529;SDS011;3298;42.688;23.366;2022-12-04T11:13:35;5.93;;;4.77;;
6529;SDS011;3298;42.688;23.366;2022-12-04T11:16:04;6.03;;;5.00;;
6529;SDS011;3298;42.688;23.366;2022-12-04T11:18:32;6.57;;;4.93;;
6529;SDS011;3298;42.688;23.366;2022-12-04T11:21:01;4.43;;;4.13;;
6529;SDS011;3298;42.688;23.366;2022-12-04T11:23:31;5.47;;;5.07;;
6529;SDS011;3298;42.688;23.366;2022-12-04T11:26:07;5.90;;;5.30;;
6529;SDS011;3298;42.688;23.366;2022-12-04T11:28:35;4.10;;;3.70;;
6529;SDS011;3298;42.688;23.366;2022-12-04T11:31:04;3.60;;;2.83;;
6529;SDS011;3298;42.688;23.366;2022-12-04T11:33:36;3.90;;;3.60;;
6529;SDS011;3298;42.688;23.366;2022-12-04T11:36:14;3.70;;;3.50;;
6529;SDS011;3298;42.688;23.366;2022-12-04T11:38:48;4.03;;;3.73;;
6529;SDS011;3298;42.688;23.366;2022-12-04T11:41:24;3.50;;;3.27;;
6529;SDS011;3298;42.688;23.366;2022-12-04T11:43:54;2.80;;;2.70;;
6529;SDS011;3298;42.688;23.366;2022-12-04T11:46:22;3.30;;;3.00;;
6529;SDS011;3298;42.688;23.366;2022-12-04T11:48:52;4.30;;;4.00;;
6529;SDS011;3298;42.688;23.366;2022-12-04T11:51:20;4.17;;;3.87;;
6529;SDS011;3298;42.688;23.366;2022-12-04T11:54:02;4.57;;;4.23;;
6529;SDS011;3298;42.688;23.366;2022-12-04T11:56:36;4.27;;;3.93;;
6529;SDS011;3298;42.688;23.366;2022-12-04T11:59:14;4.90;;;4.50;;
6529;SDS011;3298;42.688;23.366;2022-12-04T12:02:01;4.50;;;4.03;;
6529;SDS011;3298;42.688;23.366;2022-12-04T12:04:48;5.33;;;4.43;;
6529;SDS011;3298;42.688;23.366;2022-12-04T12:07:31;11.33;;;7.90;;
6529;SDS011;3298;42.688;23.366;2022-12-04T12:10:08;7.83;;;6.60;;
6529;SDS011;3298;42.688;23.366;2022-12-04T12:12:43;7.47;;;6.20;;
6529;SDS011;3298;42.688;23.366;2022-12-04T12:15:22;4.23;;;3.87;;
6529;SDS011;3298;42.688;23.366;2022-12-04T12:18:01;5.20;;;4.73;;
6529;SDS011;3298;42.688;23.366;2022-12-04T12:20:44;3.97;;;3.70;;
6529;SDS011;3298;42.688;23.366;2022-12-04T12:23:24;5.47;;;5.00;;
6529;SDS011;3298;42.688;23.366;2022-12-04T12:26:10;6.33;;;5.37;;
6529;SDS011;3298;42.688;23.366;2022-12-04T12:28:46;7.33;;;6.70;;
6529;SDS011;3298;42.688;23.366;2022-12-04T12:31:32;5.93;;;5.43;;
6529;SDS011;3298;42.688;23.366;2022-12-04T12:34:09;5.40;;;5.00;;
6529;SDS011;3298;42.688;23.366;2022-12-04T12:36:42;5.40;;;5.00;;
6529;SDS011;3298;42.688;23.366;2022-12-04T12:39:14;6.40;;;5.83;;
6529;SDS011;3298;42.688;23.366;2022-12-04T12:41:52;6.50;;;5.90;;
6529;SDS011;3298;42.688;23.366;2022-12-04T12:44:24;4.33;;;3.93;;
6529;SDS011;3298;42.688;23.366;2022-12-04T12:46:57;7.33;;;6.60;;
6529;SDS011;3298;42.688;23.366;2022-12-04T12:49:33;5.90;;;5.30;;
6529;SDS011;3298;42.688;23.366;2022-12-04T12:52:10;7.90;;;6.40;;
6529;SDS011;3298;42.688;23.366;2022-12-04T12:54:43;6.93;;;6.23;;
6529;SDS011;3298;42.688;23.366;2022-12-04T12:57:17;7.63;;;6.83;;
6529;SDS011;3298;42.688;23.366;2022-12-04T12:59:52;8.03;;;6.37;;
6529;SDS011;3298;42.688;23.366;2022-12-04T13:02:26;7.50;;;6.80;;
6529;SDS011;3298;42.688;23.366;2022-12-04T13:04:56;14.73;;;7.47;;
6529;SDS011;3298;42.688;23.366;2022-12-04T13:07:30;9.10;;;8.17;;
6529;SDS011;3298;42.688;23.366;2022-12-04T13:10:10;12.67;;;8.73;;
6529;SDS011;3298;42.688;23.366;2022-12-04T13:12:44;11.77;;;9.03;;
6529;SDS011;3298;42.688;23.366;2022-12-04T13:15:15;8.73;;;7.63;;
6529;SDS011;3298;42.688;23.366;2022-12-04T13:17:47;7.60;;;6.87;;
6529;SDS011;3298;42.688;23.366;2022-12-04T13:20:20;9.53;;;7.90;;
6529;SDS011;3298;42.688;23.366;2022-12-04T13:22:56;9.00;;;7.77;;
6529;SDS011;3298;42.688;23.366;2022-12-04T13:25:42;8.60;;;6.80;;
6529;SDS011;3298;42.688;23.366;2022-12-04T13:28:22;8.33;;;6.17;;
6529;SDS011;3298;42.688;23.366;2022-12-04T13:31:04;8.73;;;7.37;;
6529;SDS011;3298;42.688;23.366;2022-12-04T13:33:55;6.50;;;5.90;;
6529;SDS011;3298;42.688;23.366;2022-12-04T13:36:44;8.77;;;6.70;;
6529;SDS011;3298;42.688;23.366;2022-12-04T13:39:34;8.17;;;6.67;;
6529;SDS011;3298;42.688;23.366;2022-12-04T13:42:23;7.67;;;6.90;;
6529;SDS011;3298;42.688;23.366;2022-12-04T13:44:56;7.47;;;5.77;;
6529;SDS011;3298;42.688;23.366;2022-12-04T13:47:27;7.10;;;6.60;;
6529;SDS011;3298;42.688;23.366;2022-12-04T13:50:05;10.27;;;7.07;;
6529;SDS011;3298;42.688;23.366;2022-12-04T13:52:51;7.53;;;6.83;;
6529;SDS011;3298;42.688;23.366;2022-12-04T13:55:24;12.00;;;8.07;;
6529;SDS011;3298;42.688;23.366;2022-12-04T13:57:55;6.37;;;5.77;;
6529;SDS011;3298;42.688;23.366;2022-12-04T14:00:31;7.27;;;6.57;;
6529;SDS011;3298;42.688;23.366;2022-12-04T14:03:02;5.60;;;5.10;;
6529;SDS011;3298;42.688;23.366;2022-12-04T14:05:39;4.93;;;4.53;;
6529;SDS011;3298;42.688;23.366;2022-12-04T14:08:19;4.77;;;4.33;;
6529;SDS011;3298;42.688;23.366;2022-12-04T14:10:57;5.57;;;4.93;;
6529;SDS011;3298;42.688;23.366;2022-12-04T14:13:33;7.00;;;6.27;;
6529;SDS011;3298;42.688;23.366;2022-12-04T14:16:17;6.20;;;5.63;;
6529;SDS011;3298;42.688;23.366;2022-12-04T14:18:48;6.87;;;6.17;;
6529;SDS011;3298;42.688;23.366;2022-12-04T14:21:18;9.10;;;7.50;;
6529;SDS011;3298;42.688;23.366;2022-12-04T14:23:47;8.80;;;6.63;;
6529;SDS011;3298;42.688;23.366;2022-12-04T14:26:18;7.73;;;7.07;;
6529;SDS011;3298;42.688;23.366;2022-12-04T14:28:50;7.73;;;6.50;;
6529;SDS011;3298;42.688;23.366;2022-12-04T14:31:22;7.03;;;6.37;;
6529;SDS011;3298;42.688;23.366;2022-12-04T14:33:56;5.17;;;4.77;;
6529;SDS011;3298;42.688;23.366;2022-12-04T14:36:26;6.97;;;5.87;;
6529;SDS011;3298;42.688;23.366;2022-12-04T14:39:03;5.50;;;5.00;;
6529;SDS011;3298;42.688;23.366;2022-12-04T14:41:33;11.30;;;6.43;;
6529;SDS011;3298;42.688;23.366;2022-12-04T14:44:00;6.00;;;5.47;;
6529;SDS011;3298;42.688;23.366;2022-12-04T14:46:33;7.70;;;5.33;;
6529;SDS011;3298;42.688;23.366;2022-12-04T14:49:10;5.67;;;4.07;;
6529;SDS011;3298;42.688;23.366;2022-12-04T14:51:48;7.93;;;6.00;;
6529;SDS011;3298;42.688;23.366;2022-12-04T14:54:22;6.63;;;3.73;;
6529;SDS011;3298;42.688;23.366;2022-12-04T14:56:58;8.47;;;6.20;;
6529;SDS011;3298;42.688;23.366;2022-12-04T14:59:40;7.00;;;6.30;;
6529;SDS011;3298;42.688;23.366;2022-12-04T15:02:12;10.93;;;7.67;;
6529;SDS011;3298;42.688;23.366;2022-12-04T15:04:42;5.30;;;4.50;;
6529;SDS011;3298;42.688;23.366;2022-12-04T15:07:16;7.70;;;5.23;;
6529;SDS011;3298;42.688;23.366;2022-12-04T15:09:49;5.17;;;4.70;;
6529;SDS011;3298;42.688;23.366;2022-12-04T15:12:38;7.43;;;6.33;;
6529;SDS011;3298;42.688;23.366;2022-12-04T15:15:11;8.20;;;5.43;;
6529;SDS011;3298;42.688;23.366;2022-12-04T15:17:42;7.07;;;6.30;;
6529;SDS011;3298;42.688;23.366;2022-12-04T15:20:10;7.93;;;5.77;;
6529;SDS011;3298;42.688;23.366;2022-12-04T15:22:41;8.23;;;6.70;;
6529;SDS011;3298;42.688;23.366;2022-12-04T15:25:13;6.77;;;5.83;;
6529;SDS011;3298;42.688;23.366;2022-12-04T15:27:42;15.33;;;4.67;;